Houston, Texas
Current Conditions -  °F | °C
As of 10:15 AM on Monday 24 Nov 2014 (Local Time) from KMCJ Reporting Station
Clear Clear  
Wind Chill: 14°   Ceiling: Unl
Heat Index: 14°   Visibility: 10mi
Dew Point:   Wind: 15mph
Humidity: 38%   Direction: 340°NNW
Pressure: 30.01"   Gusts: 25mph
Location:  29.76°N, 95.37°W
Report Text: KMCJ 241615Z AUTO 34013G22KT 10SM CLR 14/00 A3001 RMK AO1
Loading
Personal Weather Stations






























Interactive Weather Map New forecast layout! Learn more

10-Day Weather Forecast

Advertisements
Track Severe Weather on mobile